Terminal Aerodrome Forecast
Issued by NWS St Louis, MO

Home | Current Version | Previous Version | Text Only | Print | Product List | Glossary On
Versions: 1 2 3 4 5 6 7 8 9 10 11 12 13 14 15 16 17 18 19 20 21 22 23 24 25 26 27 28 29 30 31 32
000
FTUS43 KLSX 191700
TAFSTL
TAF
KSTL 191738Z 1918/2024 08004KT 5SM HZ BKN015 OVC050
     FM192200 08003KT P6SM BKN020 BKN040
     FM200900 12003KT 4SM BR SCT007 OVC015
     FM201700 17006KT 6SM HZ BKN020 OVC050=

USA.gov is the U.S. government's official web portal to all federal, state and local government web resources and services.